Time;durP1;ratioP1;P1;durP2;ratioP2;P2;SDS_P1;SDS_P2;PMS_P1;PMS_P2;Temp;Humidity;BMP_temperature;BMP_pressure;BME280_temperature;BME280_humidity;BME280_pressure;Samples;Min_cycle;Max_cycle;Signal;HPM_P1;HPM_P2
2021/05/04 00:00:49;;;;;;;7.57;2.80;;;;;;;4.83;68.49;98497.59;5074719;28;20035;-72
2021/05/04 00:03:15;;;;;;;3.92;2.80;;;;;;;4.79;68.58;98464.94;5077388;28;20096;-72
2021/05/04 00:05:41;;;;;;;4.38;2.88;;;;;;;4.96;68.98;98489.00;5067869;28;20032;-72
2021/05/04 00:08:06;;;;;;;4.90;3.00;;;;;;;4.98;68.32;98485.13;5078693;28;20042;-71
2021/05/04 00:10:32;;;;;;;7.15;3.10;;;;;;;5.00;68.04;98471.53;5094163;28;20024;-72
2021/05/04 00:12:57;;;;;;;5.30;2.53;;;;;;;5.01;68.23;98474.03;5091351;28;20095;-71
2021/05/04 00:15:22;;;;;;;5.13;2.90;;;;;;;5.06;67.94;98473.53;5093949;28;20028;-72
2021/05/04 00:17:47;;;;;;;4.55;3.08;;;;;;;5.10;67.88;98463.28;5088406;28;20054;-72
2021/05/04 00:20:13;;;;;;;5.07;2.75;;;;;;;5.21;67.74;98458.34;5094583;28;20027;-72
2021/05/04 00:22:38;;;;;;;4.50;2.90;;;;;;;5.33;66.81;98460.63;5079604;28;20025;-71
2021/05/04 00:25:04;;;;;;;4.28;2.72;;;;;;;5.45;66.36;98460.03;5056102;28;20389;-71
2021/05/04 00:27:29;;;;;;;4.88;3.22;;;;;;;5.48;66.66;98451.63;5073385;28;20020;-71
2021/05/04 00:29:55;;;;;;;5.95;2.97;;;;;;;5.50;66.39;98448.72;5087289;28;20373;-71
2021/05/04 00:32:20;;;;;;;6.63;2.40;;;;;;;5.61;66.62;98458.22;5090214;28;20039;-71
2021/05/04 00:34:46;;;;;;;4.97;3.05;;;;;;;5.65;66.55;98441.56;5073325;28;20024;-71
2021/05/04 00:37:11;;;;;;;4.32;2.50;;;;;;;5.71;65.73;98448.06;5082496;28;20024;-71
2021/05/04 00:39:37;;;;;;;3.83;2.47;;;;;;;5.71;66.12;98446.22;5093199;28;20034;-71
2021/05/04 00:42:04;;;;;;;3.40;2.75;;;;;;;5.73;66.19;98432.59;5072254;28;20078;-72
2021/05/04 00:44:30;;;;;;;3.83;2.55;;;;;;;5.83;66.16;98427.81;5073097;28;20024;-72
2021/05/04 00:46:55;;;;;;;5.45;2.92;;;;;;;5.66;65.74;98416.41;5091935;28;20020;-71
2021/05/04 00:49:21;;;;;;;4.18;2.78;;;;;;;5.86;65.87;98418.56;5093198;28;20033;-71
2021/05/04 00:51:47;;;;;;;5.13;3.00;;;;;;;5.84;66.15;98413.41;5091775;28;20053;-72
2021/05/04 00:54:14;;;;;;;3.47;2.30;;;;;;;5.92;65.94;98407.09;5073945;28;20044;-72
2021/05/04 00:56:40;;;;;;;5.18;2.90;;;;;;;5.95;65.42;98411.28;5089917;28;20059;-71
2021/05/04 00:59:07;;;;;;;4.57;3.00;;;;;;;5.93;65.51;98406.09;5054688;28;20017;-71
2021/05/04 01:01:33;;;;;;;9.32;2.70;;;;;;;5.92;65.59;98407.94;5073587;28;20090;-71
2021/05/04 01:03:58;;;;;;;4.40;2.65;;;;;;;5.98;66.01;98408.25;5092540;28;20035;-72
2021/05/04 01:06:24;;;;;;;5.97;2.95;;;;;;;5.99;66.07;98409.91;5092879;28;20107;-72
2021/05/04 01:08:49;;;;;;;4.22;2.60;;;;;;;5.93;66.44;98406.94;5086880;28;20021;-72
2021/05/04 01:11:15;;;;;;;4.55;2.70;;;;;;;5.78;66.46;98398.00;5056036;28;20119;-72
2021/05/04 01:13:40;;;;;;;7.72;2.78;;;;;;;5.83;66.60;98398.28;5092558;28;20473;-71
2021/05/04 01:16:07;;;;;;;4.05;2.80;;;;;;;5.89;67.27;98392.22;5074581;28;20085;-71
2021/05/04 01:18:33;;;;;;;4.18;2.53;;;;;;;5.94;67.04;98386.28;5092666;28;20024;-71
2021/05/04 01:20:58;;;;;;;5.28;2.60;;;;;;;5.99;66.49;98386.59;5069217;28;20405;-72
2021/05/04 01:23:23;;;;;;;5.45;2.60;;;;;;;5.94;66.48;98380.94;5083230;28;20044;-71
2021/05/04 01:25:48;;;;;;;3.60;2.50;;;;;;;5.96;66.57;98370.00;5092761;28;20034;-72
2021/05/04 01:28:14;;;;;;;5.47;2.75;;;;;;;6.05;66.24;98360.84;5092323;28;20023;-71
2021/05/04 01:30:39;;;;;;;4.78;2.70;;;;;;;6.15;65.89;98372.13;5092785;28;20435;-71
2021/05/04 01:33:04;;;;;;;3.42;2.45;;;;;;;6.15;65.99;98372.97;5075434;28;20039;-71
2021/05/04 01:35:30;;;;;;;4.28;2.75;;;;;;;6.10;65.66;98345.00;5087031;28;20108;-71
2021/05/04 01:37:57;;;;;;;5.93;2.72;;;;;;;6.23;64.90;98349.72;5072217;28;20025;-71
2021/05/04 01:40:22;;;;;;;3.92;2.90;;;;;;;6.41;64.50;98358.22;5074513;28;20478;-71
2021/05/04 01:42:47;;;;;;;4.78;2.90;;;;;;;6.46;64.32;98347.75;5072595;28;20039;-72
2021/05/04 01:45:22;;;;;;;3.72;2.55;;;;;;;6.67;63.43;98355.03;5086545;28;20028;-71
2021/05/04 01:47:47;;;;;;;3.85;2.85;;;;;;;6.57;64.05;98325.75;5092973;28;20055;-71
2021/05/04 01:50:13;;;;;;;7.05;2.65;;;;;;;6.64;63.40;98325.84;5072319;28;20056;-71
2021/05/04 01:52:38;;;;;;;5.40;2.53;;;;;;;6.69;63.20;98325.28;5077828;28;20032;-71
2021/05/04 01:55:05;;;;;;;7.18;2.75;;;;;;;6.76;63.56;98328.88;5078586;28;20452;-71
2021/05/04 01:57:31;;;;;;;4.10;2.67;;;;;;;6.75;63.21;98329.88;5079188;28;20055;-71
2021/05/04 01:59:56;;;;;;;6.28;2.97;;;;;;;6.82;63.09;98320.03;5060666;28;20047;-71
2021/05/04 02:02:21;;;;;;;3.72;2.15;;;;;;;6.91;62.81;98323.41;5091201;28;20032;-71
2021/05/04 02:04:47;;;;;;;5.05;2.75;;;;;;;6.82;63.11;98308.44;5096248;28;20035;-71
2021/05/04 02:07:12;;;;;;;5.13;2.80;;;;;;;7.04;61.76;98310.09;5096303;28;20478;-71
2021/05/04 02:09:37;;;;;;;3.63;2.38;;;;;;;7.10;61.98;98312.03;5096003;28;20024;-71
2021/05/04 02:12:03;;;;;;;3.35;2.50;;;;;;;7.13;61.75;98327.78;5069890;28;20028;-71
2021/05/04 02:14:28;;;;;;;4.22;2.50;;;;;;;7.19;60.88;98305.47;5085076;28;20027;-71
2021/05/04 02:16:54;;;;;;;3.83;2.70;;;;;;;7.26;61.13;98310.94;5096972;28;20036;-71
2021/05/04 02:19:19;;;;;;;4.45;2.40;;;;;;;7.15;61.94;98297.97;5097688;28;20045;-71
2021/05/04 02:21:44;;;;;;;3.95;2.50;;;;;;;7.14;61.72;98299.84;5094121;28;20027;-71
2021/05/04 02:24:10;;;;;;;4.45;2.72;;;;;;;7.03;61.42;98290.44;5095901;28;20073;-71
2021/05/04 02:26:35;;;;;;;3.45;2.35;;;;;;;7.07;61.80;98298.13;5077926;28;20016;-71
2021/05/04 02:29:00;;;;;;;4.18;2.60;;;;;;;7.11;60.98;98281.41;5095540;28;20089;-71
2021/05/04 02:31:26;;;;;;;8.60;3.13;;;;;;;7.31;60.72;98294.19;5100232;22;20412;-70
2021/05/04 02:33:51;;;;;;;3.63;2.30;;;;;;;7.29;60.78;98285.50;5074467;28;20032;-72
2021/05/04 02:36:17;;;;;;;3.35;2.15;;;;;;;7.29;60.60;98298.94;5065707;28;20107;-70
2021/05/04 02:38:42;;;;;;;4.75;2.80;;;;;;;7.24;60.78;98283.38;5093587;28;20447;-73
2021/05/04 02:41:08;;;;;;;4.30;2.72;;;;;;;7.17;60.63;98272.53;5074442;28;20478;-70
2021/05/04 02:43:35;;;;;;;4.40;2.63;;;;;;;7.22;61.23;98270.09;5073921;28;20529;-70
2021/05/04 02:46:05;;;;;;;5.25;2.53;;;;;;;7.22;61.31;98267.41;5074195;28;20089;-70
2021/05/04 02:48:33;;;;;;;4.85;2.45;;;;;;;7.26;60.34;98262.50;5056505;28;20085;-70
2021/05/04 02:50:59;;;;;;;5.35;2.55;;;;;;;7.21;60.79;98262.25;5054766;28;20355;-70
2021/05/04 02:53:24;;;;;;;5.95;2.60;;;;;;;7.13;61.42;98248.94;5074345;28;20031;-70
2021/05/04 02:55:49;;;;;;;5.50;2.60;;;;;;;7.18;61.42;98263.47;5074595;28;20028;-70
2021/05/04 02:58:15;;;;;;;4.65;2.45;;;;;;;7.11;60.99;98238.38;5074329;28;20499;-70
2021/05/04 03:00:40;;;;;;;4.88;2.53;;;;;;;7.22;61.24;98253.97;5079962;28;20048;-70
2021/05/04 03:03:05;;;;;;;4.78;2.40;;;;;;;7.23;60.95;98247.56;5074416;28;20032;-70
2021/05/04 03:05:31;;;;;;;2.50;1.83;;;;;;;7.22;60.45;98235.13;5074418;28;20041;-70
2021/05/04 03:07:56;;;;;;;5.85;2.15;;;;;;;7.34;61.22;98226.53;5052666;28;20057;-70
2021/05/04 03:10:22;;;;;;;4.10;2.10;;;;;;;7.33;61.06;98224.84;5067848;28;20043;-71
2021/05/04 03:12:47;;;;;;;5.00;2.70;;;;;;;7.35;60.48;98220.94;5056758;28;20580;-71
2021/05/04 03:15:13;;;;;;;3.50;2.42;;;;;;;7.39;60.76;98219.53;5074153;28;20036;-71
2021/05/04 03:17:39;;;;;;;5.47;2.60;;;;;;;7.49;60.29;98213.78;5073718;28;20025;-71
2021/05/04 03:20:05;;;;;;;3.60;2.28;;;;;;;7.51;59.94;98217.09;5055363;28;20032;-70
2021/05/04 03:22:30;;;;;;;6.03;2.20;;;;;;;7.62;59.40;98203.09;5073495;28;20031;-70
2021/05/04 03:24:56;;;;;;;4.47;2.30;;;;;;;7.65;58.99;98200.00;5074302;28;20036;-71
2021/05/04 03:27:21;;;;;;;5.15;2.10;;;;;;;7.90;58.31;98199.50;5073932;28;20386;-71
2021/05/04 03:29:46;;;;;;;2.95;2.00;;;;;;;7.97;58.51;98204.91;5073130;28;20074;-71
2021/05/04 03:32:12;;;;;;;2.22;1.65;;;;;;;8.08;57.55;98213.22;5073698;28;20025;-70
2021/05/04 03:34:37;;;;;;;3.13;1.90;;;;;;;8.06;57.80;98182.97;5074107;28;20469;-70
2021/05/04 03:37:02;;;;;;;3.22;2.08;;;;;;;8.17;57.83;98181.53;5073771;28;20082;-71
2021/05/04 03:39:27;;;;;;;5.43;2.05;;;;;;;8.09;57.71;98171.78;5055631;28;20059;-71
2021/05/04 03:41:53;;;;;;;2.97;2.00;;;;;;;8.11;57.73;98177.81;5074177;28;20017;-70
2021/05/04 03:44:18;;;;;;;3.20;2.08;;;;;;;8.21;57.73;98172.03;5074232;28;20036;-70
2021/05/04 03:46:44;;;;;;;3.53;2.00;;;;;;;8.17;57.83;98170.75;5074543;28;20024;-71
2021/05/04 03:49:10;;;;;;;4.25;2.13;;;;;;;8.17;57.55;98148.38;5073215;28;20087;-71
2021/05/04 03:51:35;;;;;;;6.72;2.22;;;;;;;8.32;57.05;98147.16;5055234;28;20036;-70
2021/05/04 03:54:01;;;;;;;3.53;2.10;;;;;;;8.33;57.44;98156.06;5055062;28;20492;-70
2021/05/04 03:56:26;;;;;;;3.85;2.00;;;;;;;8.31;57.42;98142.81;5073973;28;20025;-70
2021/05/04 03:58:52;;;;;;;2.78;2.13;;;;;;;8.51;56.02;98142.88;5073892;28;20020;-78
2021/05/04 04:01:17;;;;;;;4.32;2.10;;;;;;;8.39;56.59;98111.31;5068386;28;20390;-72
2021/05/04 04:03:42;;;;;;;4.50;2.20;;;;;;;8.55;56.01;98117.16;5055048;28;20165;-75
2021/05/04 04:06:08;;;;;;;2.53;1.70;;;;;;;8.65;55.77;98135.63;5064576;28;20028;-74
2021/05/04 04:08:33;;;;;;;3.33;1.88;;;;;;;8.59;55.64;98116.75;5063597;28;20028;-73
2021/05/04 04:10:59;;;;;;;2.80;1.60;;;;;;;8.74;55.45;98131.66;5053791;28;20146;-73
2021/05/04 04:13:24;;;;;;;3.53;1.90;;;;;;;8.78;55.48;98121.31;5051049;28;20028;-72
2021/05/04 04:15:49;;;;;;;3.00;2.00;;;;;;;8.74;55.20;98111.97;5061888;28;20541;-72
2021/05/04 04:18:15;;;;;;;2.72;1.75;;;;;;;8.74;55.43;98115.50;5061958;28;20021;-72
2021/05/04 04:20:40;;;;;;;4.18;1.92;;;;;;;8.75;55.59;98124.41;5055202;28;20027;-69
2021/05/04 04:23:06;;;;;;;3.08;1.80;;;;;;;8.69;55.86;98117.97;5070997;28;20028;-72
2021/05/04 04:25:31;;;;;;;2.67;1.88;;;;;;;8.71;55.68;98104.31;5072407;28;20496;-72
2021/05/04 04:27:57;;;;;;;3.90;2.20;;;;;;;8.82;54.81;98090.16;5054801;28;20413;-74
2021/05/04 04:30:24;;;;;;;3.05;1.60;;;;;;;8.93;54.98;98119.22;5071332;28;20028;-71
2021/05/04 04:32:50;;;;;;;4.13;1.63;;;;;;;8.81;54.88;98072.34;5053422;28;20031;-72
2021/05/04 04:35:15;;;;;;;3.47;1.88;;;;;;;9.02;54.76;98106.34;5052765;28;20478;-74
2021/05/04 04:37:41;;;;;;;1.77;1.38;;;;;;;9.02;54.66;98100.94;5052883;28;20024;-74
2021/05/04 04:40:07;;;;;;;3.55;1.85;;;;;;;9.05;54.89;98102.38;5052855;28;20107;-74
2021/05/04 04:42:33;;;;;;;6.53;1.83;;;;;;;9.03;54.79;98101.75;5064156;28;20032;-72
2021/05/04 04:44:58;;;;;;;2.95;1.60;;;;;;;8.96;54.46;98067.53;5070340;28;20102;-72
2021/05/04 04:47:23;;;;;;;2.67;1.65;;;;;;;9.06;54.36;98074.34;5071486;28;20025;-74
2021/05/04 04:49:49;;;;;;;1.95;1.50;;;;;;;9.09;54.94;98079.31;5052471;28;20081;-73
2021/05/04 04:52:15;;;;;;;2.83;1.50;;;;;;;9.08;54.81;98083.91;5068600;28;20040;-74
2021/05/04 04:54:40;;;;;;;3.90;1.80;;;;;;;8.99;55.26;98079.78;5053679;28;20034;-71
2021/05/04 04:57:05;;;;;;;2.75;1.70;;;;;;;8.96;55.02;98080.19;5067421;28;20085;-73
2021/05/04 04:59:32;;;;;;;5.95;1.55;;;;;;;9.03;55.13;98082.88;5060158;28;20021;-72
2021/05/04 05:01:57;;;;;;;2.33;1.73;;;;;;;8.94;55.13;98072.31;5072085;28;20024;-72
2021/05/04 05:04:24;;;;;;;3.13;1.70;;;;;;;9.02;55.56;98087.44;5071945;28;20020;-66
2021/05/04 05:06:49;;;;;;;2.53;1.50;;;;;;;8.97;54.83;98058.41;5053721;28;20035;-71
2021/05/04 05:09:14;;;;;;;3.33;1.80;;;;;;;9.12;54.71;98081.63;5053670;28;20470;-71
2021/05/04 05:11:39;;;;;;;3.53;1.58;;;;;;;9.02;55.45;98068.56;5070910;28;20028;-73
2021/05/04 05:14:08;;;;;;;3.35;1.67;;;;;;;9.11;55.06;98071.84;5066339;28;20052;-68
2021/05/04 05:16:34;;;;;;;2.78;1.70;;;;;;;9.09;55.20;98073.94;5068099;28;20048;-72
2021/05/04 05:18:59;;;;;;;4.32;1.70;;;;;;;9.10;55.45;98064.81;5052997;28;20048;-75
2021/05/04 05:21:25;;;;;;;3.65;1.77;;;;;;;9.02;55.69;98063.16;5065853;28;20087;-74
2021/05/04 05:23:52;;;;;;;2.97;1.60;;;;;;;9.06;55.53;98063.56;5050675;28;20025;-71
2021/05/04 05:26:18;;;;;;;6.75;1.90;;;;;;;9.01;55.77;98056.09;5048706;28;20024;-73
2021/05/04 05:28:44;;;;;;;4.25;1.70;;;;;;;9.10;55.80;98065.63;5065867;28;20371;-71
2021/05/04 05:31:09;;;;;;;2.63;1.73;;;;;;;9.09;55.86;98057.72;5070377;28;20030;-73
2021/05/04 05:33:35;;;;;;;3.90;1.60;;;;;;;9.17;55.67;98060.22;5059401;28;20031;-72
2021/05/04 05:36:04;;;;;;;2.83;1.77;;;;;;;9.18;55.72;98057.31;5050450;28;20037;-75
2021/05/04 05:38:29;;;;;;;4.55;1.80;;;;;;;9.22;55.66;98057.69;5065008;28;20036;-71
2021/05/04 05:40:56;;;;;;;3.08;1.90;;;;;;;9.35;55.54;98057.66;5052590;28;20489;-73
2021/05/04 05:43:23;;;;;;;4.80;2.00;;;;;;;9.36;55.39;98053.91;5053496;28;20028;-72
2021/05/04 05:45:49;;;;;;;3.53;1.50;;;;;;;9.39;55.38;98041.88;5071167;28;20370;-72
2021/05/04 05:48:14;;;;;;;8.18;1.98;;;;;;;9.47;55.31;98057.00;5071284;28;20386;-73
2021/05/04 05:50:41;;;;;;;4.70;2.40;;;;;;;9.42;55.60;98034.16;5053706;28;20025;-69
2021/05/04 05:53:06;;;;;;;2.47;1.90;;;;;;;9.55;55.24;98045.94;5053054;28;20035;-70
2021/05/04 05:55:31;;;;;;;4.28;1.58;;;;;;;9.57;54.96;98041.16;5071716;28;20020;-72
2021/05/04 05:57:57;;;;;;;4.57;1.80;;;;;;;9.68;54.74;98035.06;5070255;28;20021;-72
2021/05/04 06:00:22;;;;;;;4.18;1.52;;;;;;;9.76;54.60;98034.81;5066156;28;20025;-75
2021/05/04 06:02:48;;;;;;;2.45;1.60;;;;;;;9.86;54.39;98032.47;5051892;28;20021;-70
2021/05/04 06:05:14;;;;;;;5.15;2.00;;;;;;;9.93;54.70;98028.88;5071148;28;20035;-69
2021/05/04 06:07:40;;;;;;;2.78;1.75;;;;;;;10.01;54.30;98028.63;5053277;28;20024;-71
2021/05/04 06:10:06;;;;;;;2.78;1.80;;;;;;;10.03;54.29;98016.56;5069922;28;20375;-71
2021/05/04 06:12:31;;;;;;;4.43;1.70;;;;;;;10.15;54.18;98019.38;5068438;28;20039;-69
2021/05/04 06:14:56;;;;;;;3.38;1.85;;;;;;;10.31;54.08;98024.25;5052917;28;20029;-68
2021/05/04 06:17:22;;;;;;;4.15;1.65;;;;;;;10.30;53.64;98008.28;5053300;28;20021;-73
2021/05/04 06:19:47;;;;;;;6.07;1.80;;;;;;;10.50;53.44;98011.59;5065818;28;20024;-75
2021/05/04 06:22:12;;;;;;;3.05;1.88;;;;;;;10.63;52.96;97999.00;5070354;28;20033;-76
2021/05/04 06:24:38;;;;;;;3.85;1.80;;;;;;;10.71;52.55;98002.25;5070036;28;20028;-68
2021/05/04 06:27:03;;;;;;;5.72;2.00;;;;;;;10.92;52.39;98002.88;5070791;28;20122;-69
2021/05/04 06:29:28;;;;;;;3.08;1.80;;;;;;;10.96;52.20;97995.97;5068467;28;20108;-73
2021/05/04 06:32:02;;;;;;;3.55;1.50;;;;;;;11.18;51.97;97994.44;5053547;28;20079;-71
2021/05/04 06:34:27;;;;;;;3.75;1.83;;;;;;;11.30;51.59;97991.78;5064628;28;20036;-72
2021/05/04 06:36:53;;;;;;;3.42;1.83;;;;;;;11.40;50.97;97983.13;5068235;28;20025;-73
2021/05/04 06:39:18;;;;;;;6.20;1.90;;;;;;;11.50;51.36;97972.59;5057212;28;20017;-73
2021/05/04 06:41:43;;;;;;;3.88;1.50;;;;;;;11.61;51.10;97979.09;5074988;28;20020;-72
2021/05/04 06:44:09;;;;;;;5.60;1.77;;;;;;;11.66;50.47;97975.69;5077127;28;20032;-76
2021/05/04 06:46:34;;;;;;;2.58;1.30;;;;;;;11.85;49.76;97980.81;5076875;28;20021;-75
2021/05/04 06:49:00;;;;;;;3.25;1.70;;;;;;;12.00;48.93;97975.00;5074949;28;20024;-77
2021/05/04 06:51:26;;;;;;;2.47;1.55;;;;;;;11.94;49.33;97965.06;5056589;28;20138;-74
2021/05/04 06:53:51;;;;;;;2.72;1.70;;;;;;;11.98;49.10;97962.72;5054772;28;20129;-67
2021/05/04 06:56:17;;;;;;;4.90;1.70;;;;;;;12.16;48.60;97959.09;5073588;28;20039;-67
2021/05/04 06:58:42;;;;;;;2.65;1.30;;;;;;;12.23;48.61;97966.03;5062704;28;20118;-67
2021/05/04 07:01:07;;;;;;;2.22;1.52;;;;;;;12.44;47.79;97956.53;5074387;28;20020;-68
2021/05/04 07:03:32;;;;;;;1.75;1.20;;;;;;;12.41;47.36;97951.56;5060467;28;20024;-67
2021/05/04 07:05:58;;;;;;;2.58;1.50;;;;;;;12.62;47.81;97960.16;5073927;28;20159;-67
2021/05/04 07:08:23;;;;;;;1.92;1.10;;;;;;;12.55;47.20;97968.44;5071101;28;20025;-67
2021/05/04 07:10:48;;;;;;;4.32;1.70;;;;;;;12.63;47.30;97957.22;5063318;28;20366;-67
2021/05/04 07:13:18;;;;;;;3.65;1.30;;;;;;;12.63;46.77;97946.38;5066546;28;20028;-67
2021/05/04 07:15:44;;;;;;;1.80;1.30;;;;;;;12.75;46.23;97946.34;5069745;28;20497;-67
2021/05/04 07:18:10;;;;;;;2.28;1.30;;;;;;;12.96;46.20;97941.34;5066215;28;20500;-73
2021/05/04 07:20:39;;;;;;;2.65;1.23;;;;;;;13.04;46.25;97941.78;5048865;28;20025;-72
2021/05/04 07:23:09;;;;;;;1.50;1.00;;;;;;;13.21;46.49;97944.59;5048257;28;20020;-73
2021/05/04 07:25:34;;;;;;;4.85;1.25;;;;;;;13.29;45.51;97930.66;5060382;28;20517;-71
2021/05/04 07:28:00;;;;;;;3.72;1.20;;;;;;;13.31;45.49;97928.53;5070922;28;20031;-74
2021/05/04 07:30:26;;;;;;;2.38;1.35;;;;;;;13.40;45.49;97931.66;5045757;28;20031;-76
2021/05/04 07:32:51;;;;;;;1.50;1.10;;;;;;;13.48;44.98;97928.56;5086168;28;20024;-68
2021/05/04 07:35:17;;;;;;;2.08;1.30;;;;;;;13.56;45.44;97946.34;5079848;28;20055;-69
2021/05/04 07:37:43;;;;;;;2.03;1.27;;;;;;;13.61;45.39;97926.59;5073360;28;20048;-71
2021/05/04 07:40:09;;;;;;;7.45;1.38;;;;;;;13.71;45.07;97924.06;5083984;28;20048;-71
2021/05/04 07:42:35;;;;;;;5.50;1.75;;;;;;;13.95;44.84;97931.00;5088512;28;20060;-70
2021/05/04 07:45:00;;;;;;;1.90;1.20;;;;;;;13.99;44.04;97925.88;5072392;28;20021;-74
2021/05/04 07:47:26;;;;;;;2.72;1.38;;;;;;;14.20;44.79;97919.72;5073317;28;20033;-71
2021/05/04 07:49:52;;;;;;;2.03;1.10;;;;;;;14.44;43.97;97928.53;5064040;28;20024;-70
2021/05/04 07:52:17;;;;;;;1.52;1.13;;;;;;;14.37;44.08;97908.00;5058694;28;20024;-71
2021/05/04 07:54:43;;;;;;;5.25;1.30;;;;;;;14.37;43.67;97910.72;5073546;28;20032;-70
2021/05/04 07:57:08;;;;;;;5.22;1.23;;;;;;;14.22;44.08;97897.69;5075787;28;20024;-74
2021/05/04 07:59:34;;;;;;;2.00;1.10;;;;;;;14.24;44.32;97920.84;5055318;28;20016;-72
2021/05/04 08:02:01;;;;;;;1.80;1.08;;;;;;;14.26;43.97;97912.47;5058112;28;20054;-74
2021/05/04 08:04:27;;;;;;;2.00;1.20;;;;;;;14.28;44.94;97921.19;5082999;28;20034;-72
2021/05/04 08:06:52;;;;;;;3.72;1.27;;;;;;;14.44;44.42;97925.78;5053179;28;20115;-73
2021/05/04 08:09:18;;;;;;;11.10;1.55;;;;;;;14.49;44.73;97911.44;5073831;28;20016;-73
2021/05/04 08:11:43;;;;;;;5.13;1.20;;;;;;;14.64;44.56;97922.56;5061839;28;20029;-72
2021/05/04 08:14:10;;;;;;;2.28;1.10;;;;;;;14.58;44.95;97925.47;5068738;28;20029;-67
2021/05/04 08:16:35;;;;;;;4.05;1.00;;;;;;;14.62;44.41;97923.91;5071783;28;20029;-74
2021/05/04 08:19:01;;;;;;;12.10;1.95;;;;;;;14.93;44.02;97899.78;5042730;28;20078;-69
2021/05/04 08:21:32;;;;;;;1.50;1.00;;;;;;;15.27;43.40;97919.53;5068913;28;20029;-76
2021/05/04 08:23:58;;;;;;;2.22;0.95;;;;;;;15.09;42.83;97897.00;5045274;28;20020;-70
2021/05/04 08:26:25;;;;;;;5.82;1.15;;;;;;;15.13;42.31;97900.03;5067896;28;20025;-70
2021/05/04 08:28:50;;;;;;;7.72;1.10;;;;;;;15.39;42.75;97913.94;5064359;28;20029;-70
2021/05/04 08:31:15;;;;;;;18.73;2.30;;;;;;;15.41;42.63;97918.06;5046367;28;20025;-69
2021/05/04 08:33:41;;;;;;;11.50;1.50;;;;;;;15.70;41.85;97893.28;5072474;28;20017;-72
2021/05/04 08:36:06;;;;;;;6.75;1.27;;;;;;;15.74;41.58;97895.22;5072312;28;20525;-74
2021/05/04 08:38:31;;;;;;;2.97;1.15;;;;;;;15.77;41.64;97878.38;5070608;28;20032;-69
2021/05/04 08:40:57;;;;;;;2.58;1.00;;;;;;;15.82;41.02;97885.75;5071912;28;20024;-69
2021/05/04 08:43:25;;;;;;;2.08;1.10;;;;;;;15.85;41.14;97912.53;5072519;28;20371;-70
2021/05/04 08:45:56;;;;;;;4.30;1.45;;;;;;;16.02;41.11;97901.47;5052868;28;20070;-68
2021/05/04 08:48:24;;;;;;;12.30;1.67;;;;;;;16.07;40.62;97903.41;5071788;28;20027;-72
2021/05/04 08:50:49;;;;;;;2.50;1.13;;;;;;;16.12;40.33;97892.53;5041404;28;20033;-73
2021/05/04 08:53:14;;;;;;;4.47;1.00;;;;;;;16.04;40.19;97898.50;5049587;28;20554;-71
2021/05/04 08:55:40;;;;;;;5.60;1.30;;;;;;;16.04;40.20;97888.41;5061964;28;20025;-71
2021/05/04 08:58:05;;;;;;;6.20;1.10;;;;;;;16.13;40.37;97889.53;5065670;28;20096;-73
2021/05/04 09:00:30;;;;;;;4.40;1.02;;;;;;;16.02;40.36;97887.81;5056424;28;20120;-72
2021/05/04 09:03:24;;;;;;;1.95;1.27;;;;;;;15.88;40.20;97889.38;5054746;28;20028;-66
2021/05/04 09:06:14;;;;;;;2.25;1.13;;;;;;;16.34;39.79;97897.88;5070222;28;20032;-71
2021/05/04 09:08:42;;;;;;;1.60;1.10;;;;;;;16.63;40.01;97906.50;5071074;28;20381;-71
2021/05/04 09:11:20;;;;;;;4.78;1.08;;;;;;;16.73;38.71;97903.84;5071801;28;20036;-71
2021/05/04 09:13:59;;;;;;;1.83;1.00;;;;;;;16.84;38.58;97896.53;5072685;28;20112;-73
2021/05/04 09:21:33;;;;;;;3.17;1.20;;;;;;;16.79;38.33;97902.81;5072818;28;20047;-70
2021/05/04 09:23:59;;;;;;;9.05;1.20;;;;;;;17.11;37.80;97885.47;5066923;28;20025;-73
2021/05/04 09:26:32;;;;;;;1.75;0.98;;;;;;;16.93;38.00;97883.22;5055830;28;20024;-73
2021/05/04 09:28:59;;;;;;;1.55;0.90;;;;;;;16.59;38.18;97902.69;5054110;28;20021;-73
2021/05/04 09:31:26;;;;;;;8.20;0.88;;;;;;;16.36;38.87;97887.53;5070574;28;20516;-72
2021/05/04 09:33:53;;;;;;;8.63;1.00;;;;;;;16.56;38.60;97884.09;5071069;28;20382;-70
2021/05/04 09:36:43;;;;;;;3.10;1.00;;;;;;;16.72;37.70;97883.09;5053336;28;20074;-74
2021/05/04 09:39:12;;;;;;;2.95;0.88;;;;;;;16.94;37.66;97869.28;5054424;28;20078;-72
2021/05/04 09:41:37;;;;;;;7.15;0.88;;;;;;;17.03;37.43;97886.81;5055681;28;20404;-67
2021/05/04 09:44:03;;;;;;;3.83;0.80;;;;;;;17.16;37.36;97888.22;5070626;28;20025;-67
2021/05/04 09:46:48;;;;;;;1.92;0.90;;;;;;;17.43;37.37;97887.19;5070512;28;20032;-71
2021/05/04 09:49:31;;;;;;;8.93;0.98;;;;;;;17.27;36.68;97870.75;5070464;28;20028;-68
2021/05/04 09:55:08;;;;;;;1.20;1.10;;;;;;;17.43;36.66;97874.34;5071001;28;20024;-70
2021/05/04 09:57:44;;;;;;;5.05;0.90;;;;;;;17.07;35.89;97867.94;5068685;28;20047;-68
2021/05/04 10:00:09;;;;;;;5.15;1.30;;;;;;;17.40;35.50;97857.66;5058861;28;20029;-67
2021/05/04 10:02:36;;;;;;;2.38;0.88;;;;;;;16.97;35.61;97885.13;5069659;28;20400;-69
2021/05/04 10:05:03;;;;;;;6.25;1.00;;;;;;;16.87;35.18;97887.81;5068276;28;20031;-68
2021/05/04 10:07:31;;;;;;;3.30;0.70;;;;;;;16.91;34.40;97871.72;5061169;28;20028;-69
2021/05/04 10:09:58;;;;;;;3.95;1.20;;;;;;;16.63;35.49;97836.31;5068564;28;20039;-71
2021/05/04 10:12:23;;;;;;;1.58;0.80;;;;;;;17.01;35.40;97861.66;5074126;28;20104;-69
2021/05/04 10:14:51;;;;;;;2.30;0.90;;;;;;;17.21;34.77;97852.69;5065966;28;20512;-71
2021/05/04 10:17:17;;;;;;;0.93;0.80;;;;;;;17.41;35.05;97867.50;5056850;28;20020;-70
2021/05/04 10:19:43;;;;;;;2.53;1.00;;;;;;;17.61;34.93;97851.13;5074736;28;20032;-69
2021/05/04 10:22:10;;;;;;;2.92;1.02;;;;;;;17.53;34.93;97854.41;5054079;28;20508;-70
2021/05/04 10:24:38;;;;;;;1.02;0.68;;;;;;;17.57;35.05;97857.41;5074674;28;20032;-69
2021/05/04 10:27:04;;;;;;;6.60;1.10;;;;;;;17.49;35.31;97864.22;5074603;28;20386;-69
2021/05/04 10:29:31;;;;;;;2.28;0.90;;;;;;;17.11;35.52;97871.81;5074257;28;20025;-69
2021/05/04 10:32:00;;;;;;;1.52;0.90;;;;;;;17.53;34.99;97879.81;5058464;28;20039;-69
2021/05/04 10:34:32;;;;;;;2.50;1.08;;;;;;;16.72;35.36;97854.97;5074054;28;20020;-69
2021/05/04 10:36:59;;;;;;;2.05;1.00;;;;;;;17.29;35.15;97875.94;5070728;28;20024;-69
2021/05/04 10:39:37;;;;;;;1.30;0.85;;;;;;;17.08;35.28;97862.22;5072003;28;20375;-69
2021/05/04 10:42:05;;;;;;;2.15;1.10;;;;;;;16.89;35.21;97852.03;5065642;28;20020;-69
2021/05/04 10:44:30;;;;;;;2.33;0.70;;;;;;;17.03;35.00;97855.94;5068295;28;20029;-69
2021/05/04 10:46:57;;;;;;;2.35;0.70;;;;;;;16.93;35.35;97853.97;5067630;28;20039;-69
2021/05/04 10:49:57;;;;;;;1.98;0.95;;;;;;;17.21;35.09;97880.03;5069726;28;20068;-69
2021/05/04 10:52:54;;;;;;;4.18;0.80;;;;;;;16.87;35.14;97865.97;5050034;28;20032;-69
2021/05/04 10:55:21;;;;;;;2.33;0.85;;;;;;;17.02;35.82;97857.81;5043495;28;20047;-69
2021/05/04 10:58:02;;;;;;;3.95;1.17;;;;;;;17.22;35.42;97858.97;5049479;28;20119;-69
2021/05/04 11:00:49;;;;;;;1.92;0.80;;;;;;;17.16;35.59;97866.34;5062884;28;20035;-70
2021/05/04 11:03:33;;;;;;;1.55;0.80;;;;;;;17.13;36.06;97872.34;5048819;28;20024;-73
2021/05/04 11:06:03;;;;;;;1.85;0.98;;;;;;;17.18;35.42;97847.75;5046001;28;20517;-71
2021/05/04 11:08:41;;;;;;;6.40;0.85;;;;;;;17.12;35.08;97843.38;5068798;28;20430;-70
2021/05/04 11:11:40;;;;;;;3.97;1.00;;;;;;;16.62;35.71;97853.00;5066502;28;20063;-67
2021/05/04 11:14:12;;;;;;;3.00;1.02;;;;;;;16.58;35.50;97849.13;5066428;28;21759;-67
2021/05/04 11:16:46;;;;;;;8.23;0.95;;;;;;;16.73;35.97;97843.75;5046079;28;20032;-67
2021/05/04 11:19:34;;;;;;;2.15;0.80;;;;;;;16.48;36.01;97862.72;5052336;28;20032;-66
2021/05/04 11:22:04;;;;;;;3.72;0.95;;;;;;;16.95;36.08;97856.44;5039793;28;20028;-71
2021/05/04 11:24:29;;;;;;;5.75;0.80;;;;;;;16.74;35.46;97856.34;5064539;28;20086;-68
2021/05/04 11:26:57;;;;;;;3.30;0.83;;;;;;;16.83;36.02;97853.94;5062934;28;20059;-71
2021/05/04 11:29:32;;;;;;;4.15;0.80;;;;;;;16.81;36.77;97864.31;5066349;28;20772;-74
2021/05/04 11:32:20;;;;;;;12.15;1.30;;;;;;;17.13;36.07;97849.66;5064717;28;20081;-67
2021/05/04 11:34:52;;;;;;;3.53;1.05;;;;;;;17.30;35.97;97845.59;5077396;28;20016;-67
2021/05/04 11:37:22;;;;;;;2.40;1.00;;;;;;;17.25;35.89;97847.50;5052676;28;20039;-70
2021/05/04 11:39:56;;;;;;;3.03;0.80;;;;;;;16.99;36.39;97831.03;5069234;28;20056;-69
2021/05/04 11:42:33;;;;;;;1.52;1.00;;;;;;;16.99;36.42;97836.50;5068373;28;20115;-70
2021/05/04 11:45:26;;;;;;;4.70;1.00;;;;;;;17.01;36.53;97852.63;5069223;28;20028;-70